Hanover, Virginia
Current Conditions -  °F | °C
As of 8:54 AM on Monday 20 Oct 2014 (Local Time) from KOFP Reporting Station
Clear Clear  
Wind Chill: 47°   Ceiling: Unl
Heat Index: 47°   Visibility: 10mi
Dew Point: 41°   Wind: 3mph
Humidity: 80%   Direction: 160°SSE
Pressure: 30.16"   Gusts: NA
Location:  37.77°N, 77.37°W
Report Text: KOFP 201254Z AUTO 16003KT 10SM CLR 08/05 A3016 RMK AO2 SLP214 T00830050
Loading
Personal Weather Stations






























Interactive Weather Map
Tropical Storm Tracking
New forecast layout! Learn more

10-Day Weather Forecast

Advertisements
Track Severe Weather on mobile